Time;durP1;ratioP1;P1;durP2;ratioP2;P2;SDS_P1;SDS_P2;PMS_P1;PMS_P2;Temp;Humidity;BMP_temperature;BMP_pressure;BME280_temperature;BME280_humidity;BME280_pressure;Samples;Min_cycle;Max_cycle;Signal;HPM_P1;HPM_P2
2021/04/16 00:02:15;;;;;;;5.17;2.73;;;;;;;;;;10320196;28;20225;-78
2021/04/16 00:07:17;;;;;;;4.13;2.90;;;;;;;;;;10323614;28;20221;-81
2021/04/16 00:12:19;;;;;;;4.40;2.60;;;;;;;;;;10319370;28;20209;-81
2021/04/16 00:17:21;;;;;;;4.40;2.47;;;;;;;;;;10326985;28;20233;-81
2021/04/16 00:22:24;;;;;;;5.30;2.30;;;;;;;;;;10319186;28;20216;-81
2021/04/16 00:27:29;;;;;;;3.30;2.50;;;;;;;;;;10320232;28;20610;-81
2021/04/16 00:32:31;;;;;;;3.23;2.13;;;;;;;;;;10318749;28;20339;-79
2021/04/16 00:37:33;;;;;;;3.50;2.50;;;;;;;;;;10319824;28;20357;-79
2021/04/16 00:42:36;;;;;;;3.93;2.40;;;;;;;;;;10323252;28;20236;-80
2021/04/16 00:47:38;;;;;;;3.37;2.10;;;;;;;;;;10319141;28;20213;-80
2021/04/16 00:52:40;;;;;;;3.33;2.00;;;;;;;;;;10320879;28;20216;-80
2021/04/16 00:57:43;;;;;;;3.50;2.27;;;;;;;;;;10318027;28;20229;-80
2021/04/16 01:02:44;;;;;;;4.30;2.23;;;;;;;;;;10318534;28;20222;-79
2021/04/16 01:07:46;;;;;;;3.40;2.30;;;;;;;;;;10320015;28;20225;-80
2021/04/16 01:12:49;;;;;;;2.83;2.20;;;;;;;;;;10318292;28;20944;-80
2021/04/16 01:17:52;;;;;;;3.90;2.40;;;;;;;;;;10317240;28;20241;-80
2021/04/16 01:22:57;;;;;;;3.70;2.30;;;;;;;;;;10322085;28;20232;-81
2021/04/16 01:28:00;;;;;;;3.47;2.00;;;;;;;;;;10325806;28;20561;-80
2021/04/16 01:33:02;;;;;;;3.80;2.40;;;;;;;;;;10330426;28;20677;-79
2021/04/16 01:38:05;;;;;;;3.00;2.30;;;;;;;;;;10325092;28;20593;-80
2021/04/16 01:43:19;;;;;;;2.20;1.90;;;;;;;;;;10327402;28;20432;-79
2021/04/16 01:48:21;;;;;;;3.73;2.30;;;;;;;;;;10328632;28;20513;-80
2021/04/16 01:53:23;;;;;;;3.20;2.40;;;;;;;;;;10328954;28;20404;-80
2021/04/16 01:58:26;;;;;;;4.13;2.63;;;;;;;;;;10321716;28;20256;-80
2021/04/16 02:03:27;;;;;;;2.87;2.33;;;;;;;;;;10337449;28;20209;-80
2021/04/16 02:08:30;;;;;;;2.70;2.30;;;;;;;;;;10328609;28;20705;-79
2021/04/16 02:13:32;;;;;;;3.20;2.33;;;;;;;;;;10326364;28;20671;-79
2021/04/16 02:18:35;;;;;;;6.37;2.27;;;;;;;;;;10326640;28;20252;-80
2021/04/16 02:23:37;;;;;;;2.70;2.30;;;;;;;;;;10326269;28;20215;-80
2021/04/16 02:28:40;;;;;;;5.60;2.40;;;;;;;;;;10320165;28;20217;-80
2021/04/16 02:33:42;;;;;;;3.57;2.57;;;;;;;;;;10330853;28;20216;-80
2021/04/16 02:38:44;;;;;;;4.50;2.40;;;;;;;;;;10324981;28;20248;-80
2021/04/16 02:43:46;;;;;;;3.50;2.40;;;;;;;;;;10327856;28;20599;-80
2021/04/16 02:48:48;;;;;;;4.43;2.70;;;;;;;;;;10327218;28;20216;-79
2021/04/16 02:53:50;;;;;;;3.43;2.50;;;;;;;;;;10323376;28;20221;-79
2021/04/16 02:58:53;;;;;;;4.57;2.93;;;;;;;;;;10329201;28;20243;-79
2021/04/16 03:03:54;;;;;;;3.07;2.30;;;;;;;;;;10325349;28;20224;-78
2021/04/16 03:08:58;;;;;;;6.33;2.83;;;;;;;;;;10326400;28;20213;-80
2021/04/16 03:14:01;;;;;;;6.33;2.80;;;;;;;;;;10324830;28;20282;-79
2021/04/16 03:19:03;;;;;;;6.03;2.73;;;;;;;;;;10324969;28;20736;-79
2021/04/16 03:24:06;;;;;;;4.10;2.60;;;;;;;;;;10324992;28;20224;-79
2021/04/16 03:29:08;;;;;;;6.77;2.80;;;;;;;;;;10322729;28;20663;-79
2021/04/16 03:34:10;;;;;;;4.37;2.70;;;;;;;;;;10317372;28;20678;-79
2021/04/16 03:39:12;;;;;;;4.07;2.60;;;;;;;;;;10322449;28;20245;-79
2021/04/16 03:44:15;;;;;;;5.80;2.70;;;;;;;;;;10314595;28;20213;-79
2021/04/16 03:49:17;;;;;;;5.27;2.53;;;;;;;;;;10322103;28;20232;-78
2021/04/16 03:54:19;;;;;;;5.37;2.90;;;;;;;;;;10321251;28;20228;-79
2021/04/16 03:59:23;;;;;;;4.67;3.10;;;;;;;;;;10317658;28;20239;-78
2021/04/16 04:04:25;;;;;;;4.53;2.97;;;;;;;;;;10326454;28;20212;-79
2021/04/16 04:09:27;;;;;;;5.23;2.80;;;;;;;;;;10328797;28;20222;-78
2021/04/16 04:14:30;;;;;;;5.80;3.10;;;;;;;;;;10320206;28;20225;-79
2021/04/16 04:19:33;;;;;;;5.93;3.17;;;;;;;;;;10320093;28;20746;-79
2021/04/16 04:24:35;;;;;;;4.87;2.80;;;;;;;;;;10319475;28;20587;-79
2021/04/16 04:29:38;;;;;;;3.90;2.73;;;;;;;;;;10316778;28;20515;-78
2021/04/16 04:34:40;;;;;;;6.70;3.17;;;;;;;;;;10319503;28;20256;-79
2021/04/16 04:39:43;;;;;;;5.13;3.10;;;;;;;;;;10291963;28;795226;-80
2021/04/16 04:44:46;;;;;;;6.40;3.20;;;;;;;;;;10319788;28;20232;-79
2021/04/16 04:49:48;;;;;;;5.47;3.00;;;;;;;;;;10323961;28;20213;-79
2021/04/16 04:54:51;;;;;;;4.77;2.90;;;;;;;;;;10314750;28;20240;-80
2021/04/16 04:59:54;;;;;;;7.33;3.27;;;;;;;;;;10320420;28;20248;-80
2021/04/16 05:04:55;;;;;;;6.40;3.60;;;;;;;;;;10322880;28;21051;-79
2021/04/16 05:09:57;;;;;;;7.00;3.70;;;;;;;;;;10316953;28;20214;-80
2021/04/16 05:15:00;;;;;;;8.03;4.13;;;;;;;;;;10316099;28;20212;-79
2021/04/16 05:20:02;;;;;;;9.77;4.60;;;;;;;;;;10317434;28;20730;-79
2021/04/16 05:25:04;;;;;;;7.10;4.30;;;;;;;;;;10322126;28;20726;-80
2021/04/16 05:30:08;;;;;;;8.93;4.20;;;;;;;;;;10315376;28;20239;-79
2021/04/16 05:35:11;;;;;;;9.53;4.47;;;;;;;;;;10319610;28;20212;-80
2021/04/16 05:40:13;;;;;;;9.30;4.83;;;;;;;;;;10321914;28;20237;-80
2021/04/16 05:45:16;;;;;;;13.10;5.13;;;;;;;;;;10316141;28;20618;-78
2021/04/16 05:50:19;;;;;;;9.80;4.90;;;;;;;;;;10317610;28;20225;-80
2021/04/16 05:55:21;;;;;;;14.17;5.63;;;;;;;;;;10310979;28;20205;-81
2021/04/16 06:00:24;;;;;;;11.23;5.70;;;;;;;;;;10316280;28;20721;-83
2021/04/16 06:05:26;;;;;;;11.80;5.57;;;;;;;;;;10313439;28;20213;-82
2021/04/16 06:10:29;;;;;;;10.27;5.03;;;;;;;;;;10325121;28;20214;-80
2021/04/16 06:15:31;;;;;;;11.63;5.63;;;;;;;;;;10325032;28;20222;-80
2021/04/16 06:20:33;;;;;;;13.60;5.97;;;;;;;;;;10334958;28;20721;-81
2021/04/16 06:25:36;;;;;;;15.33;6.13;;;;;;;;;;10333418;28;20221;-79
2021/04/16 06:30:40;;;;;;;16.73;6.40;;;;;;;;;;10328790;28;20232;-86
2021/04/16 06:35:46;;;;;;;15.47;6.40;;;;;;;;;;10323364;28;20304;-85
2021/04/16 06:40:48;;;;;;;15.10;6.77;;;;;;;;;;10326962;28;20245;-81
2021/04/16 06:45:52;;;;;;;14.83;6.00;;;;;;;;;;10324899;28;20588;-85
2021/04/16 06:51:07;;;;;;;11.97;5.93;;;;;;;;;;10332036;28;20205;-85
2021/04/16 06:56:12;;;;;;;13.03;5.30;;;;;;;;;;10326214;28;20692;-85
2021/04/16 07:01:20;;;;;;;11.33;5.33;;;;;;;;;;10323958;28;20240;-86
2021/04/16 07:06:23;;;;;;;12.10;5.30;;;;;;;;;;10327734;28;20351;-85
2021/04/16 07:11:26;;;;;;;10.97;5.20;;;;;;;;;;10321227;28;20226;-85
2021/04/16 07:16:31;;;;;;;11.90;5.27;;;;;;;;;;10314391;28;20271;-85
2021/04/16 07:21:33;;;;;;;8.87;4.47;;;;;;;;;;10322956;28;20241;-87
2021/04/16 07:26:41;;;;;;;14.10;4.97;;;;;;;;;;10327802;28;20213;-88
2021/04/16 07:31:49;;;;;;;9.53;4.27;;;;;;;;;;10324080;28;20221;-87
2021/04/16 07:36:51;;;;;;;11.53;4.77;;;;;;;;;;10327433;28;20629;-84
2021/04/16 07:41:55;;;;;;;11.93;4.90;;;;;;;;;;10320612;28;20236;-85
2021/04/16 07:46:58;;;;;;;10.57;4.80;;;;;;;;;;10320764;28;20217;-89
2021/04/16 07:52:18;;;;;;;15.27;4.80;;;;;;;;;;10323277;28;20236;-90
2021/04/16 07:57:21;;;;;;;13.93;4.90;;;;;;;;;;10329348;28;20224;-88
2021/04/16 08:02:26;;;;;;;10.53;4.40;;;;;;;;;;10317707;28;20249;-88
2021/04/16 08:07:30;;;;;;;11.03;4.80;;;;;;;;;;10324902;28;20205;-87
2021/04/16 08:12:32;;;;;;;9.17;4.10;;;;;;;;;;10317384;28;20213;-86
2021/04/16 08:17:35;;;;;;;7.37;4.00;;;;;;;;;;10319109;28;20712;-85
2021/04/16 08:22:38;;;;;;;10.20;3.97;;;;;;;;;;10316662;28;20928;-91
2021/04/16 08:27:43;;;;;;;8.53;3.60;;;;;;;;;;10343181;28;20281;-88
2021/04/16 08:32:48;;;;;;;8.53;3.97;;;;;;;;;;10327606;28;20308;-90
2021/04/16 08:38:02;;;;;;;11.67;4.00;;;;;;;;;;10324803;28;20251;-79
2021/04/16 08:43:05;;;;;;;7.43;3.80;;;;;;;;;;10316242;28;20209;-79
2021/04/16 08:48:13;;;;;;;10.37;4.30;;;;;;;;;;10320711;28;20289;-91
2021/04/16 08:53:16;;;;;;;7.47;3.80;;;;;;;;;;10336042;28;20217;-90
2021/04/16 08:58:23;;;;;;;7.37;3.90;;;;;;;;;;10322658;28;20687;-86
2021/04/16 09:03:41;;;;;;;10.03;4.07;;;;;;;;;;10322004;28;20213;-87
2021/04/16 09:08:58;;;;;;;7.43;3.80;;;;;;;;;;10328305;28;20601;-92
2021/04/16 09:14:04;;;;;;;7.70;3.63;;;;;;;;;;10321818;28;20687;-80
2021/04/16 09:19:27;;;;;;;5.90;3.10;;;;;;;;;;10316342;28;20241;-84
2021/04/16 09:24:44;;;;;;;6.60;2.70;;;;;;;;;;10317496;28;20239;-86
2021/04/16 09:29:46;;;;;;;5.50;2.30;;;;;;;;;;10308968;28;20539;-85
2021/04/16 09:34:52;;;;;;;3.70;2.40;;;;;;;;;;10330913;28;20221;-90
2021/04/16 09:40:00;;;;;;;6.33;2.40;;;;;;;;;;10322440;28;20319;-85
2021/04/16 09:45:04;;;;;;;4.87;2.37;;;;;;;;;;10334607;28;20604;-84
2021/04/16 09:50:18;;;;;;;3.17;1.83;;;;;;;;;;10322701;28;20220;-84
2021/04/16 09:55:38;;;;;;;5.83;2.30;;;;;;;;;;10323698;28;20230;-87
2021/04/16 10:01:07;;;;;;;3.87;2.10;;;;;;;;;;10320144;28;20904;-81
2021/04/16 10:06:19;;;;;;;3.20;2.20;;;;;;;;;;10320425;28;20646;-81
2021/04/16 10:11:21;;;;;;;7.93;2.20;;;;;;;;;;10320125;28;20243;-84
2021/04/16 10:16:24;;;;;;;4.63;2.50;;;;;;;;;;10333974;28;20213;-85
2021/04/16 10:21:31;;;;;;;7.17;2.67;;;;;;;;;;10318922;28;20232;-85
2021/04/16 12:41:29;;;;;;;3.83;2.67;;;;;;;;;;10322832;28;20424;-93
2021/04/16 12:46:35;;;;;;;7.23;2.80;;;;;;;;;;10327164;28;20253;-86
2021/04/16 12:51:37;;;;;;;5.57;2.80;;;;;;;;;;10320670;28;20224;-84
2021/04/16 12:56:40;;;;;;;5.53;2.60;;;;;;;;;;10322368;28;20224;-86
2021/04/16 13:01:44;;;;;;;6.13;3.10;;;;;;;;;;10314621;28;20240;-85
2021/04/16 13:06:46;;;;;;;3.20;2.20;;;;;;;;;;10318658;28;20802;-82
2021/04/16 13:11:48;;;;;;;5.37;2.63;;;;;;;;;;10315780;28;20676;-87
2021/04/16 13:16:51;;;;;;;5.20;2.50;;;;;;;;;;10322885;28;20240;-81
2021/04/16 13:21:56;;;;;;;6.67;2.70;;;;;;;;;;10331316;28;20824;-80
2021/04/16 13:26:57;;;;;;;3.67;2.30;;;;;;;;;;10333020;28;20299;-84
2021/04/16 13:32:02;;;;;;;6.93;2.70;;;;;;;;;;10331141;28;20209;-90
2021/04/16 13:37:04;;;;;;;6.10;2.57;;;;;;;;;;10330703;28;20251;-82
2021/04/16 13:42:06;;;;;;;3.93;2.27;;;;;;;;;;10323947;28;20244;-84
2021/04/16 13:47:19;;;;;;;5.20;2.60;;;;;;;;;;10329322;28;20217;-84
2021/04/16 13:52:34;;;;;;;5.13;2.27;;;;;;;;;;10330146;28;20356;-84
2021/04/16 13:57:44;;;;;;;4.93;2.30;;;;;;;;;;10329923;28;20719;-84
2021/04/16 14:02:49;;;;;;;5.07;2.50;;;;;;;;;;10326259;28;20241;-78
2021/04/16 14:07:52;;;;;;;4.17;2.30;;;;;;;;;;10323129;28;20288;-76
2021/04/16 14:12:53;;;;;;;7.63;2.30;;;;;;;;;;10319691;28;20674;-75
2021/04/16 14:17:58;;;;;;;8.53;2.60;;;;;;;;;;10324439;28;20422;-75
2021/04/16 14:23:03;;;;;;;4.07;2.10;;;;;;;;;;10323909;28;20249;-75
2021/04/16 14:28:05;;;;;;;4.73;2.10;;;;;;;;;;10325191;28;20307;-73
2021/04/16 14:33:09;;;;;;;5.40;2.30;;;;;;;;;;10322038;28;20243;-73
2021/04/16 14:38:11;;;;;;;5.03;2.53;;;;;;;;;;10332236;28;20710;-73
2021/04/16 14:43:13;;;;;;;7.63;2.47;;;;;;;;;;10323131;28;20238;-73
2021/04/16 14:48:16;;;;;;;4.23;2.30;;;;;;;;;;10320494;28;20213;-73
2021/04/16 14:53:20;;;;;;;5.83;2.40;;;;;;;;;;10325428;28;20671;-74
2021/04/16 14:58:26;;;;;;;3.97;2.50;;;;;;;;;;10323364;28;20220;-74
2021/04/16 15:03:28;;;;;;;5.97;2.40;;;;;;;;;;10319643;28;20611;-74
2021/04/16 15:08:36;;;;;;;5.73;2.40;;;;;;;;;;10326192;28;20209;-75
2021/04/16 15:13:38;;;;;;;3.20;2.10;;;;;;;;;;10315660;28;20239;-75
2021/04/16 15:18:42;;;;;;;3.77;2.23;;;;;;;;;;10316178;28;20308;-75
2021/04/16 15:23:45;;;;;;;3.77;1.90;;;;;;;;;;10321438;28;20266;-76
2021/04/16 15:28:53;;;;;;;3.43;2.07;;;;;;;;;;10321882;28;20223;-76
2021/04/16 15:49:45;;;;;;;3.43;2.20;;;;;;;;;;10324309;28;20884;-75
2021/04/16 15:54:47;;;;;;;4.57;2.00;;;;;;;;;;10323137;28;20715;-75
2021/04/16 15:59:53;;;;;;;4.07;2.30;;;;;;;;;;10323251;28;20247;-77
2021/04/16 16:04:56;;;;;;;3.67;2.00;;;;;;;;;;10321002;28;20213;-74
2021/04/16 16:09:58;;;;;;;4.10;2.47;;;;;;;;;;10321264;28;20568;-74
2021/04/16 16:15:01;;;;;;;8.57;2.33;;;;;;;;;;10324109;28;20299;-74
2021/04/16 16:20:05;;;;;;;3.83;2.20;;;;;;;;;;10319494;28;20244;-73
2021/04/16 16:25:08;;;;;;;3.50;2.10;;;;;;;;;;10322135;28;20205;-76
2021/04/16 16:30:11;;;;;;;3.77;2.23;;;;;;;;;;10321584;28;20338;-72
2021/04/16 16:35:15;;;;;;;6.97;2.40;;;;;;;;;;10320961;28;20251;-75
2021/04/16 16:40:21;;;;;;;5.97;2.90;;;;;;;;;;10319364;28;20717;-73
2021/04/16 16:45:24;;;;;;;6.33;3.00;;;;;;;;;;10324647;28;20307;-74
2021/04/16 16:50:28;;;;;;;7.03;3.00;;;;;;;;;;10313504;28;20210;-74
2021/04/16 16:55:29;;;;;;;8.50;2.50;;;;;;;;;;10313825;28;20212;-75
2021/04/16 17:00:34;;;;;;;6.63;2.60;;;;;;;;;;10313592;28;20237;-76
2021/04/16 17:05:36;;;;;;;6.37;2.40;;;;;;;;;;10327712;28;20220;-76
2021/04/16 17:10:39;;;;;;;4.93;2.53;;;;;;;;;;10323195;28;20241;-76
2021/04/16 17:15:44;;;;;;;7.30;2.70;;;;;;;;;;10319275;28;20201;-76
2021/04/16 17:20:47;;;;;;;6.57;2.47;;;;;;;;;;10316435;28;20741;-77
2021/04/16 17:25:53;;;;;;;9.40;2.70;;;;;;;;;;10321170;28;20338;-81
2021/04/16 17:30:55;;;;;;;8.20;2.53;;;;;;;;;;10319734;28;20225;-75
2021/04/16 17:35:59;;;;;;;9.40;2.63;;;;;;;;;;10323486;28;20625;-75
2021/04/16 17:41:24;;;;;;;5.67;2.37;;;;;;;;;;10323380;28;20239;-77
2021/04/16 17:46:26;;;;;;;5.73;2.33;;;;;;;;;;10315967;28;20271;-77
2021/04/16 17:51:30;;;;;;;7.87;2.60;;;;;;;;;;10321473;28;20401;-79
2021/04/16 17:56:32;;;;;;;9.43;3.00;;;;;;;;;;10319289;28;20220;-80
2021/04/16 18:01:35;;;;;;;4.90;2.30;;;;;;;;;;10307755;28;20251;-76
2021/04/16 18:06:39;;;;;;;8.43;3.47;;;;;;;;;;10326660;28;20248;-74
2021/04/16 18:11:44;;;;;;;7.60;3.03;;;;;;;;;;10326801;28;20217;-76
2021/04/16 18:16:47;;;;;;;6.90;2.63;;;;;;;;;;10330332;28;20220;-74
2021/04/16 18:21:50;;;;;;;7.73;3.00;;;;;;;;;;10325179;28;20631;-74
2021/04/16 18:26:57;;;;;;;7.30;2.77;;;;;;;;;;10329165;28;20687;-75
2021/04/16 18:31:59;;;;;;;6.97;3.13;;;;;;;;;;10323713;28;20213;-74
2021/04/16 18:37:02;;;;;;;7.60;2.90;;;;;;;;;;10330748;28;20632;-74
2021/04/16 18:42:10;;;;;;;8.83;3.00;;;;;;;;;;10327572;28;20695;-75
2021/04/16 18:47:12;;;;;;;6.67;3.10;;;;;;;;;;10326035;28;20672;-74
2021/04/16 18:52:24;;;;;;;8.70;2.73;;;;;;;;;;10327576;28;20217;-74
2021/04/16 18:57:26;;;;;;;10.50;2.73;;;;;;;;;;10328145;28;20220;-75
2021/04/16 19:02:28;;;;;;;6.00;2.57;;;;;;;;;;10329919;28;20237;-73
2021/04/16 19:07:31;;;;;;;5.87;2.90;;;;;;;;;;10328747;28;20376;-74
2021/04/16 19:12:33;;;;;;;6.17;2.47;;;;;;;;;;10325363;28;20217;-73
2021/04/16 19:17:34;;;;;;;6.40;2.40;;;;;;;;;;10331382;28;20217;-74
2021/04/16 19:22:39;;;;;;;5.77;2.77;;;;;;;;;;10325335;28;21501;-74
2021/04/16 19:27:40;;;;;;;10.40;2.70;;;;;;;;;;10323697;28;20577;-72
2021/04/16 19:32:42;;;;;;;7.57;2.73;;;;;;;;;;10321598;28;20311;-73
2021/04/16 20:31:43;;;;;;;4.80;2.20;;;;;;;;;;10404713;28;21036;-73
2021/04/16 20:36:45;;;;;;;4.80;2.00;;;;;;;;;;10412560;28;20483;-74
2021/04/16 20:41:47;;;;;;;5.77;2.20;;;;;;;;;;10399140;28;20247;-74
2021/04/16 20:46:52;;;;;;;4.57;2.33;;;;;;;;;;10415031;28;20596;-73
2021/04/16 20:51:56;;;;;;;5.23;2.60;;;;;;;;;;10406027;28;20218;-73
2021/04/16 20:56:58;;;;;;;6.13;2.50;;;;;;;;;;10406745;28;20311;-72
2021/04/16 21:02:06;;;;;;;5.23;2.80;;;;;;;;;;10404589;28;20417;-73
2021/04/16 21:07:14;;;;;;;7.73;2.83;;;;;;;;;;10411107;28;20232;-72
2021/04/16 21:12:18;;;;;;;5.23;2.70;;;;;;;;;;10404103;28;20211;-73
2021/04/16 21:17:24;;;;;;;5.30;2.50;;;;;;;;;;10400738;28;20243;-73
2021/04/16 21:22:27;;;;;;;6.67;2.60;;;;;;;;;;10402035;28;20245;-75
2021/04/16 21:27:30;;;;;;;7.80;3.10;;;;;;;;;;10411896;28;20219;-72
2021/04/16 21:32:36;;;;;;;6.37;3.40;;;;;;;;;;10401393;28;20216;-73
2021/04/16 21:37:38;;;;;;;5.97;2.90;;;;;;;;;;10404881;28;20599;-74
2021/04/16 21:42:40;;;;;;;6.43;3.00;;;;;;;;;;10412992;28;20613;-73
2021/04/16 21:47:43;;;;;;;5.47;2.77;;;;;;;;;;10409275;28;20643;-72
2021/04/16 21:52:45;;;;;;;7.40;3.03;;;;;;;;;;10412424;28;20724;-73
2021/04/16 21:57:47;;;;;;;5.10;2.60;;;;;;;;;;10404412;28;20764;-73
2021/04/16 22:02:51;;;;;;;5.53;2.73;;;;;;;;;;10411903;28;20235;-73
2021/04/16 22:08:10;;;;;;;7.27;2.57;;;;;;;;;;10400867;28;20220;-73
2021/04/16 22:13:13;;;;;;;5.23;2.87;;;;;;;;;;10410507;28;20215;-73
2021/04/16 22:18:17;;;;;;;9.20;2.80;;;;;;;;;;10409351;28;20219;-73
2021/04/16 22:23:22;;;;;;;5.90;3.23;;;;;;;;;;10408375;28;20679;-72
2021/04/16 22:28:27;;;;;;;8.07;3.30;;;;;;;;;;10402963;28;20235;-72
2021/04/16 22:33:32;;;;;;;8.40;3.23;;;;;;;;;;10405983;28;20674;-73
2021/04/16 22:38:35;;;;;;;6.10;3.17;;;;;;;;;;10408346;28;20302;-73
2021/04/16 22:43:38;;;;;;;7.00;3.27;;;;;;;;;;10409536;28;20231;-73
2021/04/16 22:48:41;;;;;;;7.23;3.57;;;;;;;;;;10406699;28;20681;-74
2021/04/16 22:53:43;;;;;;;7.60;3.57;;;;;;;;;;10414578;28;20212;-73
2021/04/16 22:58:45;;;;;;;6.77;3.40;;;;;;;;;;10401464;28;20736;-73
2021/04/16 23:03:52;;;;;;;6.53;3.47;;;;;;;;;;10410142;28;20825;-73
2021/04/16 23:08:55;;;;;;;7.10;3.50;;;;;;;;;;10407027;28;20252;-73
2021/04/16 23:13:58;;;;;;;6.70;3.60;;;;;;;;;;10401626;28;20293;-73
2021/04/16 23:19:01;;;;;;;11.63;3.70;;;;;;;;;;10400767;28;20219;-73
2021/04/16 23:24:05;;;;;;;9.97;4.10;;;;;;;;;;10405834;28;20334;-73
2021/04/16 23:29:12;;;;;;;10.03;3.90;;;;;;;;;;10401598;28;20224;-73
2021/04/16 23:34:14;;;;;;;7.97;4.00;;;;;;;;;;10402861;28;20208;-73
2021/04/16 23:39:18;;;;;;;11.23;4.17;;;;;;;;;;10404649;28;20720;-74
2021/04/16 23:44:21;;;;;;;8.73;4.23;;;;;;;;;;10405217;28;20244;-73
2021/04/16 23:49:24;;;;;;;8.97;3.70;;;;;;;;;;10400526;28;20580;-74
2021/04/16 23:54:29;;;;;;;8.10;3.90;;;;;;;;;;10405213;28;20220;-74
2021/04/16 23:59:31;;;;;;;9.73;5.00;;;;;;;;;;10399846;28;20366;-74
